OINN  Noshahr  Airport

Iran

Add Bookmark
Status IATA
Operational NSH
Latitude Longitude
36° 39' 47" N 51° 27' 52" E
36.663300 51.464699
Local (DST + 5) UTC (GMT + 4)
Mar 2, 2015 02:51 Mar 1, 2015 23:21
Sunrise-Sunset Local UTC
Begin Civil Twilight 06:06 02:36
Sunrise 06:32 03:02
Sunset 06:00 14:30
End Civil Twilight 06:26 14:56
Flight Planner at SkyVector.com

Current Weather

METAR Observed VFR
OINN 012300Z 00000KT 9999 SCT027 BKN190 08/05 Q1013 Sun, Mar 1, 2015 @ 23:00 UTC
(21 Minutes ago)
Visual Flight Rules
Wind Visibility Clouds Conditions
Calm 10 km or more
  • Scattered at 2,700' AGL
  • Broken at 19,000' AGL
  • No significant weather
Temperatures Readings Precipitation
Current Temp 8°C (46°F)
Dewpoint 5°C (41°F)
Humidity 82%
Altimeter 29.91"Hg
Sea Level Pressure 1013mb
None Recorded

Additional weather within a 92.6km radius of OINN

Map ICAO Location
OINR 75km W (292°)

24 Hour Weather History

Loading
-

24 Hour Weather Graphs

Loading
-

CheckWX.com is intended as a tool to help pilots better visualize weather data. It is not intended as a substitute for an official weather briefing obtained from a Flight Service Station. CheckWX.com does not meet the FAA requirements for an official pre-flight weather briefing. Therefore, it's important that pilots still call and obtain an official FSS pre-flight weather briefing.